Aérodrome :
LOGIN :

S'inscrire | Disclaimer

   EN    FR    IT 

 










Légende :    VFR   VFR Marginal   IFR   IFR Intensif   IFR Très Intensif
Visi : 
Plafond : 
>= 8 km
>= 3000ft
5 à 8 km
1000 à 3000 ft
1500m à 5 km
500 à 1000 ft
800 à 1500m
200 à 500 ft
< 800m
< 200 ft
Symboles :   Orages  Brouillard  Fortes neiges  Fortes précipitations  Vent > 20 kt
SIGMETs :   Divers  Orages  Givrage  Turbulence  Onde Orograph.  Cendres Volcan.







- Altitude de l'aérodrome : 374 ft
- Code IATA : LIS


LPPT - Lisboa Portela

DERNIER METAR :
  • 210230Z 17003KT 110V220 9999 TSRA FEW030 SCT035CB 21/16 Q1017 RESHRA

METARs EXPIRÉS :
  • 210200Z 21006KT 9999 TS FEW030 FEW035CB 21/16 Q1016
  • 210130Z 31004KT 270V340 9999 -TSRA FEW030 FEW035CB 21/16 Q1016
  • 210100Z 30005KT 270V330 9999 TS FEW030 FEW035CB 21/16 Q1016
  • 210030Z 20011KT 9999 TS FEW030 FEW035CB 21/16 Q1017
  • 210000Z 24006KT 210V290 9999 TS FEW030 FEW035CB 21/17 Q1016

TAF TAF LPPT
Valide du 21 à 00h jusqu'au 22 à 06h UTC


202300Z 2100/2206 VRB05KT 9999 FEW035
PROB40
TEMPO 2100/2206 VRB10G20KT 5000 TSRA SCT020 FEW035CB
BECMG 2108/2110 06008KT
BECMG 2111/2113 21005KT
BECMG 2115/2118 34012KT
BECMG 2121/2123 36007KT
Pas de NOTAMs connus pour ce terrain.
1 SIGMET publié pour la FIR Lisboa (LPPC) :
 
Orages noyés dans la masse
LPPC SIGMET 1 VALID 210030/210330 LPPT
LPPC LISBON FIR EMBD TS FCST S OF N4040 AND E OF W00930 TOP FL380 STNR NC=



MET'MAP, la Météo Aéronautique d'un coup d'oeil ! - Copyright ORBIFLY Décembre 2007 - Disclaimer

ORBIFLY MET'MAP TEAM :

Programmation & Développement : Alexandra Zaïnal
Conception & Développement : Baudouin d'Aumeries
Co-Programmation & Développement : Marc-Olivier Méhu
Soutien technique & logistique : Manuel Goepfert

Contact : metmap@orbifly.com




SOURCES & CREDITS :

   NOAA